Data for 08/02/2005

Time Sea-Level Adjusted Pressure Absolute Pressure Temperature Relative Humidity Dew Point   
(mb) (inHg) (mb) (inHg) (C) (F) (%) (C) (F)
00:05 1019 30.09 848 25.04 17.7 63.9 62 10.4 50.8
00:10 1019 30.09 848 25.04 17.6 63.7 65 11 51.8
00:15 1019 30.09 848 25.04 16.7 62 70 11.2 52.1
00:20 1019 30.09 848 25.04 16.7 62.1 66 10.5 50.9
00:25 1019 30.09 848 25.04 17.5 63.6 65 10.9 51.6
00:30 1019 30.09 848 25.04 18.2 64.7 60 10.5 50.8
00:35 1019 30.09 848 25.04 18.6 65.6 60 10.8 51.4
00:40 1019 30.09 848 25.04 18.3 65 61 10.7 51.3
00:45 1019 30.09 848 25.04 18.3 64.9 63 11.1 52
00:50 1019 30.09 848 25.04 17.7 63.9 63 10.7 51.2
00:55 1019 30.09 848 25.04 17.7 63.9 62 10.5 51
01:00 1019 30.09 848 25.04 17.7 63.8 64 10.8 51.4
01:05 1019 30.09 848 25.04 17.3 63.2 64 10.6 51.2
01:10 1019 30.09 848 25.04 17.1 62.7 65 10.6 51
01:15 1019 30.09 848 25.04 17 62.6 65 10.6 51
01:20 1019 30.09 848 25.04 16.8 62.2 68 10.9 51.6
01:25 1019 30.09 848 25.04 16.5 61.8 67 10.5 50.9
01:30 1019 30.09 848 25.04 16.7 62.1 67 10.6 51.1
01:35 1019 30.09 848 25.04 17 62.7 64 10.3 50.5
01:40 1019 30.09 848 25.04 17.4 63.3 64 10.6 51.1
01:45 1019 30.09 849 25.07 17.2 63 64 10.5 50.9
01:50 1019 30.09 849 25.07 17.3 63.2 62 10.1 50.2
01:55 1019 30.09 848 25.04 17.7 63.9 61 10.2 50.4
02:00 1019 30.09 848 25.04 17.5 63.5 63 10.4 50.8
02:05 1019 30.09 848 25.04 17.3 63.2 63 10.4 50.7
02:10 1019 30.09 848 25.04 17.3 63.2 63 10.4 50.7
02:15 1019 30.09 848 25.04 17.4 63.3 63 10.4 50.7
02:20 1019 30.09 848 25.04 17.5 63.5 63 10.4 50.8
02:25 1019 30.09 848 25.04 17.5 63.5 63 10.4 50.7
02:30 1019 30.09 848 25.04 17.6 63.7 64 10.7 51.3
02:35 1019 30.09 848 25.04 17.3 63.2 64 10.6 51.1
02:40 1019 30.09 848 25.04 17.3 63.1 64 10.5 50.9
02:45 1019 30.09 848 25.04 17.2 63 64 10.4 50.8
02:50 1019 30.09 848 25.04 17.3 63.2 63 10.3 50.5
02:55 1019 30.09 848 25.04 17.4 63.2 63 10.3 50.5
03:00 1019 30.09 848 25.04 17.4 63.2 63 10.3 50.5
03:05 1019 30.09 848 25.04 17.5 63.4 63 10.4 50.7
03:10 1019 30.09 848 25.04 17.2 62.9 64 10.5 50.9
03:15 1019 30.09 848 25.04 17.1 62.8 65 10.6 51.1
03:20 1019 30.09 848 25.04 17.2 62.9 64 10.4 50.7
03:25 1019 30.09 848 25.04 17.2 62.9 64 10.3 50.6
03:30 1019 30.09 848 25.04 17.4 63.3 61 9.9 49.8
03:35 1019 30.09 848 25.04 18 64.4 58 9.8 49.6
03:40 1019 30.09 848 25.04 18.4 65.1 57 9.7 49.5
03:45 1019 30.09 848 25.04 18.7 65.6 56 9.7 49.5
03:50 1019 30.09 848 25.04 18.7 65.7 56 9.9 49.9
03:55 1019 30.09 848 25.04 18.6 65.4 57 9.9 49.8
04:00 1019 30.09 848 25.04 18.4 65.2 57 9.8 49.6
04:05 1019 30.09 848 25.04 18.2 64.7 60 10.3 50.6
04:10 1019 30.09 848 25.04 17.6 63.7 62 10.5 50.8
04:15 1019 30.09 848 25.04 17.1 62.8 65 10.5 50.8
04:20 1019 30.09 848 25.04 16.9 62.4 65 10.4 50.8
04:25 1019 30.09 848 25.04 16.8 62.2 66 10.5 50.9
04:30 1019 30.09 848 25.04 16.6 61.9 67 10.6 51.1
04:35 1019 30.09 848 25.04 16.7 62 67 10.5 50.9
04:40 1019 30.09 848 25.04 16.5 61.7 68 10.6 51.1
04:45 1019 30.09 848 25.04 16.3 61.3 69 10.6 51.1
04:50 1019 30.09 848 25.04 16.3 61.3 68 10.4 50.7
04:55 1019 30.09 848 25.04 16.4 61.6 68 10.7 51.2
05:00 1019 30.09 848 25.04 16.4 61.5 68 10.6 51
05:05 1019 30.09 848 25.04 16.4 61.6 68 10.5 50.9
05:10 1019 30.09 848 25.04 16.4 61.4 69 10.7 51.2
05:15 1019 30.09 848 25.04 16.1 60.9 70 10.6 51
05:20 1019 30.09 848 25.04 15.9 60.7 71 10.8 51.4
05:25 1019 30.09 848 25.04 15.9 60.7 71 10.7 51.2
05:30 1019 30.09 848 25.04 16.1 60.9 73 11.2 52.1
05:35 1019 30.09 848 25.04 15.8 60.5 72 10.8 51.4
05:40 1019 30.09 848 25.04 15.6 60.2 72 10.6 51.1
05:45 1019 30.09 848 25.04 15.8 60.4 70 10.4 50.8
05:50 1019 30.09 848 25.04 15.8 60.5 69 10.3 50.5
05:55 1019 30.09 848 25.04 15.9 60.7 68 10.1 50.3
06:00 1019 30.09 848 25.04 16.1 61 67 10.1 50.1
06:05 1019 30.09 848 25.04 16.2 61.1 68 10.2 50.4
06:10 1019 30.09 848 25.04 16 60.9 68 10.3 50.5
06:15 1019 30.09 848 25.04 16 60.8 68 10.2 50.4
06:20 1019 30.09 848 25.04 16 60.9 67 10.1 50.1
06:25 1019 30.09 848 25.04 16.1 61.1 67 10.1 50.1
06:30 1019 30.09 848 25.04 16.3 61.3 67 10.1 50.3
06:35 1019 30.09 848 25.04 16.2 61.2 69 10.6 51
06:40 1019 30.09 848 25.04 16 60.8 70 10.6 51
06:45 1019 30.09 848 25.04 16.2 61.1 71 10.9 51.7
06:50 1019 30.09 848 25.04 16 60.8 72 11 51.8
06:55 1019 30.09 848 25.04 15.6 60.1 73 10.9 51.6
07:00 1019 30.09 849 25.07 15.4 59.7 75 11 51.8
07:05 1019 30.09 849 25.07 15.4 59.6 72 10.3 50.6
07:10 1019 30.09 849 25.07 15.9 60.6 69 10.4 50.7
07:15 1019 30.09 849 25.07 15.9 60.6 72 10.9 51.6
07:20 1019 30.09 849 25.07 15.7 60.2 70 10.3 50.6
07:25 1019 30.09 849 25.07 15.8 60.5 71 10.7 51.2
07:30 1020 30.12 849 25.07 15.8 60.5 71 10.5 51
07:35 1020 30.12 849 25.07 16.2 61.1 70 10.7 51.3
07:40 1020 30.12 849 25.07 16.4 61.6 69 10.7 51.3
07:45 1020 30.12 849 25.07 16.6 62 70 11.1 52
07:50 1020 30.12 849 25.07 16.5 61.8 70 11.2 52.1
07:55 1020 30.12 849 25.07 16.7 62.1 70 11.4 52.4
08:00 1020 30.12 849 25.07 16.9 62.3 72 11.8 53.2
08:05 1020 30.12 849 25.07 16.9 62.4 70 11.5 52.7
08:10 1020 30.12 849 25.07 17.2 62.9 71 11.8 53.3
08:15 1020 30.12 849 25.07 17.3 63.1 70 11.9 53.4
08:20 1020 30.12 849 25.07 17.3 63.2 71 12.2 53.9
08:25 1020 30.12 849 25.07 17 62.6 73 12.2 54
08:30 1020 30.12 849 25.07 16.8 62.3 74 12.1 53.9
08:35 1020 30.12 849 25.07 16.8 62.2 73 12 53.7
08:40 1020 30.12 849 25.07 17.3 63.2 70 11.8 53.2
08:45 1020 30.12 849 25.07 17.7 63.9 68 11.8 53.3
08:50 1020 30.12 849 25.07 18.3 64.9 66 11.9 53.4
08:55 1020 30.12 849 25.07 18.5 65.2 66 12 53.6
09:00 1020 30.12 849 25.07 18.6 65.6 64 11.8 53.3
09:05 1020 30.12 849 25.07 18.4 65.1 66 12 53.6
09:10 1020 30.12 849 25.07 18.5 65.3 66 12 53.6
09:15 1020 30.12 849 25.07 19 66.1 63 11.9 53.5
09:20 1020 30.12 849 25.07 19.8 67.6 59 11.8 53.2
09:25 1020 30.12 849 25.07 20.4 68.6 58 11.9 53.4
09:30 1020 30.12 849 25.07 20.8 69.4 59 12.5 54.5
09:35 1020 30.12 850 25.1 20.6 69.1 59 12.5 54.5
09:40 1020 30.12 850 25.1 21 69.8 57 12.4 54.2
09:45 1020 30.12 850 25.1 21.4 70.6 56 12.3 54.2
09:50 1021 30.15 850 25.1 21.8 71.3 54 12.3 54.1
09:55 1021 30.15 850 25.1 21.9 71.4 55 12.6 54.7
10:00 1020 30.12 850 25.1 22.1 71.8 52 11.9 53.4
10:05 1020 30.12 850 25.1 22.3 72.2 51 11.9 53.4
10:10 1020 30.12 850 25.1 21.9 71.4 53 11.9 53.4
10:15 1021 30.15 850 25.1 22.2 72 52 12 53.6
10:20 1021 30.15 850 25.1 22.6 72.7 50 11.8 53.2
10:25 1021 30.15 850 25.1 22.9 73.3 50 12.1 53.7
10:30 1021 30.15 850 25.1 22.6 72.6 52 12.5 54.4
10:35 1021 30.15 850 25.1 22.1 71.9 52 12.1 53.8
10:40 1021 30.15 850 25.1 22.1 71.7 54 12.6 54.7
10:45 1021 30.15 850 25.1 21.9 71.4 56 12.9 55.1
10:50 1021 30.15 850 25.1 21.8 71.2 55 12.4 54.2
10:55 1021 30.15 850 25.1 22.1 71.8 52 12.1 53.7
11:00 1021 30.15 850 25.1 22.9 73.1 50 11.9 53.5
11:05 1021 30.15 850 25.1 23.5 74.3 48 11.9 53.5
11:10 1020 30.12 850 25.1 23.6 74.5 48 12.2 54
11:15 1020 30.12 850 25.1 23.3 73.9 47 11.6 52.8
11:20 1020 30.12 850 25.1 23.6 74.4 45 11.3 52.3
11:25 1020 30.12 850 25.1 24.1 75.4 45 11.7 53.1
11:30 1020 30.12 850 25.1 24.4 75.9 46 12.2 54
11:35 1020 30.12 850 25.1 24.6 76.3 43 11.3 52.4
11:40 1020 30.12 850 25.1 25.1 77.2 41 11.1 52
11:45 1020 30.12 850 25.1 25.2 77.4 40 10.8 51.5
11:50 1020 30.12 850 25.1 25.1 77.2 43 11.7 53.1
11:55 1020 30.12 849 25.07 24.7 76.4 41 10.8 51.4
12:00 1020 30.12 849 25.07 25.2 77.3 41 11 51.9
12:05 1020 30.12 849 25.07 25.4 77.7 40 10.9 51.6
12:10 1020 30.12 849 25.07 25.8 78.5 37 10.4 50.7
12:15 1020 30.12 849 25.07 26.1 78.9 37 10.5 50.9
12:20 1020 30.12 849 25.07 26.1 79 38 10.8 51.5
12:25 1020 30.12 849 25.07 26.1 79 40 11.7 53.1
12:30 1020 30.12 849 25.07 26 78.7 38 10.9 51.7
12:35 1020 30.12 849 25.07 26.5 79.6 34 9.8 49.6
12:40 1019 30.09 849 25.07 26.5 79.7 34 9.6 49.3
12:45 1019 30.09 849 25.07 25.9 78.6 38 10.6 51.1
12:50 1020 30.12 849 25.07 25.9 78.6 37 10.2 50.4
12:55 1019 30.09 849 25.07 26.6 79.8 35 10.2 50.3
13:00 1019 30.09 849 25.07 26.6 79.9 39 11.6 52.9
13:05 1019 30.09 849 25.07 25.6 78 39 10.9 51.6
13:10 1019 30.09 848 25.04 25.9 78.6 35 9.4 48.8
13:15 1019 30.09 848 25.04 25.8 78.4 38 10.5 50.9
13:20 1019 30.09 848 25.04 25.9 78.6 36 10.1 50.2
13:25 1019 30.09 848 25.04 25.5 77.9 39 10.7 51.3
13:30 1019 30.09 848 25.04 25.5 77.9 38 10.5 50.9
13:35 1019 30.09 848 25.04 25 77 37 9.7 49.4
13:40 1018 30.06 848 25.04 25.1 77.3 38 10 50
13:45 1019 30.09 848 25.04 25.3 77.6 37 9.7 49.5
13:50 1019 30.09 848 25.04 25.2 77.3 38 10.2 50.3
13:55 1019 30.09 848 25.04 24.9 76.9 37 9.4 48.9
14:00 1019 30.09 848 25.04 25.1 77.1 37 9.6 49.3
14:05 1019 30.09 848 25.04 25 76.9 39 10.1 50.2
14:10 1019 30.09 848 25.04 24.8 76.7 39 10 50
14:15 1019 30.09 848 25.04 24.3 75.8 43 11.2 52.2
14:20 1019 30.09 848 25.04 23.2 73.7 46 11.1 52
14:25 1019 30.09 848 25.04 22.8 73.1 48 11.4 52.6
14:30 1019 30.09 848 25.04 22.9 73.1 45 10.6 51.1
14:35 1019 30.09 848 25.04 22.6 72.8 50 11.7 53.1
14:40 1019 30.09 848 25.04 22.3 72.2 50 11.6 53
14:45 1019 30.09 848 25.04 22.4 72.3 52 12.2 54
14:50 1019 30.09 848 25.04 22.5 72.5 47 10.7 51.2
14:55 1019 30.09 848 25.04 22.4 72.3 43 9.4 48.9
15:00 1019 30.09 848 25.04 23.3 73.9 43 10.1 50.1
15:05 1019 30.09 848 25.04 23.7 74.6 41 10 50
15:10 1019 30.09 848 25.04 24.3 75.8 43 11.2 52.1
15:15 1019 30.09 848 25.04 24.4 75.9 36 8.7 47.6
15:20 1019 30.09 848 25.04 25.1 77.2 34 8.3 46.9
15:25 1019 30.09 849 25.07 24.1 75.4 40 9.9 49.8
15:30 1019 30.09 848 25.04 22.3 72.1 41 8.8 47.8
15:35 1019 30.09 848 25.04 21.7 71 41 8.1 46.6
15:40 1019 30.09 848 25.04 21.7 71 41 8.1 46.5
15:45 1019 30.09 848 25.04 21.6 70.9 42 8.4 47.1
15:50 1019 30.09 848 25.04 22.2 72 41 8.4 47.2
15:55 1019 30.09 848 25.04 22.1 71.8 42 8.8 47.9
16:00 1019 30.09 848 25.04 22 71.6 42 8.6 47.5
16:05 1019 30.09 848 25.04 22.2 72 42 8.7 47.7
16:10 1019 30.09 848 25.04 22.6 72.7 40 8.6 47.6
16:15 1019 30.09 848 25.04 22.3 72.2 42 8.8 47.9
16:20 1019 30.09 848 25.04 22.3 72.1 41 8.6 47.4
16:25 1019 30.09 848 25.04 22.5 72.4 39 8.2 46.7
16:30 1019 30.09 848 25.04 22.5 72.5 40 8.5 47.3
16:35 1019 30.09 849 25.07 22.7 72.8 40 8.7 47.7
16:40 1020 30.12 849 25.07 22.7 72.8 41 8.8 47.8
16:45 1020 30.12 849 25.07 22.5 72.5 42 9.1 48.4
16:50 1020 30.12 849 25.07 22.3 72.1 45 9.9 49.9
16:55 1020 30.12 849 25.07 21.6 70.9 50 10.8 51.5
17:00 1020 30.12 850 25.1 20.7 69.3 55 11.5 52.7
17:05 1020 30.12 850 25.1 20 67.9 57 11.4 52.5
17:10 1020 30.12 850 25.1 19.5 67.1 62 12.1 53.8
17:15 1020 30.12 849 25.07 18.6 65.6 67 12.5 54.5
17:20 1020 30.12 849 25.07 18 64.4 71 12.8 55
17:25 1020 30.12 849 25.07 17.8 64 69 12.2 53.9
17:30 1020 30.12 849 25.07 17.8 64 71 12.5 54.6
17:35 1020 30.12 849 25.07 17.7 63.9 66 11.3 52.4
17:40 1020 30.12 849 25.07 17.9 64.3 71 12.7 54.9
17:45 1020 30.12 849 25.07 17.9 64.2 67 11.9 53.3
17:50 1020 30.12 849 25.07 17.8 64.1 69 12.2 53.9
17:55 1020 30.12 849 25.07 17.9 64.1 69 12.1 53.8
18:00 1020 30.12 849 25.07 17.9 64.2 68 11.9 53.5
18:05 1020 30.12 849 25.07 17.6 63.7 70 12.1 53.8
18:10 1020 30.12 850 25.1 17.4 63.3 70 12 53.6
18:15 1020 30.12 850 25.1 17.5 63.5 72 12.4 54.3
18:20 1021 30.15 850 25.1 17.4 63.4 71 12.2 53.9
18:25 1021 30.15 850 25.1 17.3 63.1 74 12.6 54.8
18:30 1021 30.15 850 25.1 17.2 63 65 10.8 51.4
18:35 1021 30.15 850 25.1 17.7 63.9 68 11.9 53.4
18:40 1021 30.15 850 25.1 17.7 63.8 67 11.6 53
18:45 1021 30.15 850 25.1 17.5 63.5 72 12.5 54.6
18:50 1021 30.15 850 25.1 17.1 62.8 76 12.8 55.1
18:55 1021 30.15 850 25.1 16.8 62.3 77 12.8 55.1
19:00 1020 30.12 849 25.07 16.7 62 79 13 55.4
19:05 1019 30.09 849 25.07 16.4 61.5 80 12.9 55.2
19:10 1019 30.09 848 25.04 16.3 61.4 80 12.8 55.1
19:15 1019 30.09 848 25.04 16.3 61.4 80 13 55.3
19:20 1019 30.09 849 25.07 16.4 61.5 83 13.4 56.2
19:25 1019 30.09 849 25.07 16.4 61.5 82 13.4 56.1
19:30 1019 30.09 849 25.07 16.6 61.9 81 13.3 56
19:35 1019 30.09 849 25.07 16.7 62.1 79 13.1 55.6
19:40 1019 30.09 848 25.04 16.8 62.3 80 13.4 56.1
19:45 1019 30.09 848 25.04 16.9 62.4 77 12.9 55.3
19:50 1019 30.09 848 25.04 17 62.6 75 12.6 54.7
19:55 1019 30.09 848 25.04 17 62.5 75 12.5 54.6
20:00 1019 30.09 848 25.04 16.9 62.4 75 12.4 54.4
20:05 1019 30.09 848 25.04 16.9 62.4 75 12.4 54.3
20:10 1019 30.09 848 25.04 16.9 62.4 72 12 53.5
20:15 1019 30.09 849 25.07 17.1 62.7 71 11.8 53.2
20:20 1020 30.12 849 25.07 17.2 62.9 69 11.6 52.8
20:25 1020 30.12 849 25.07 17.3 63.1 68 11.5 52.6
20:30 1021 30.15 850 25.1 17.5 63.5 68 11.6 52.8
20:35 1021 30.15 850 25.1 17.7 63.8 68 11.7 53
20:40 1021 30.15 850 25.1 17.7 63.9 67 11.7 53
20:45 1021 30.15 850 25.1 17.7 63.9 72 12.7 54.8
20:50 1021 30.15 850 25.1 17.5 63.5 73 12.7 54.9
20:55 1021 30.15 850 25.1 17.4 63.2 74 12.7 54.8
21:00 1021 30.15 851 25.13 17.3 63.1 77 13.2 55.8
21:05 1021 30.15 851 25.13 17.1 62.7 78 13.2 55.8
21:10 1022 30.18 851 25.13 16.8 62.3 78 12.9 55.3
21:15 1022 30.18 851 25.13 16.4 61.5 81 13.1 55.6
21:20 1022 30.18 851 25.13 16.1 60.9 82 13 55.5
21:25 1022 30.18 851 25.13 16 60.7 83 13.1 55.5
21:30 1022 30.18 851 25.13 16 60.7 82 12.8 55.1
21:35 1021 30.15 851 25.13 15.9 60.7 81 12.8 55
21:40 1021 30.15 851 25.13 16 60.7 81 12.7 54.9
21:45 1021 30.15 851 25.13 16.1 61 84 13.4 56.1
21:50 1021 30.15 850 25.1 16.2 61.1 81 13 55.4
21:55 1021 30.15 850 25.1 16 60.9 81 12.9 55.2
22:00 1021 30.15 850 25.1 16.1 60.9 83 13.2 55.8
22:05 1021 30.15 850 25.1 16.1 60.9 82 13.1 55.6
22:10 1021 30.15 850 25.1 16 60.8 83 13.1 55.6
22:15 1021 30.15 850 25.1 16.1 60.9 84 13.5 56.2
22:20 1021 30.15 850 25.1 16.1 61 81 12.9 55.3
22:25 1021 30.15 850 25.1 16.1 61 81 12.8 55
22:30 1021 30.15 850 25.1 16.1 61 80 12.7 54.8
22:35 1021 30.15 850 25.1 16.2 61.2 78 12.5 54.5
22:40 1021 30.15 850 25.1 16.2 61.2 80 12.8 55.1
22:45 1021 30.15 850 25.1 16.1 61 81 12.8 55.1
22:50 1021 30.15 851 25.13 16.1 60.9 82 13 55.4
22:55 1022 30.18 851 25.13 16.2 61.2 81 13 55.4
23:00 1022 30.18 851 25.13 16.3 61.3 79 12.7 54.9
23:05 1022 30.18 851 25.13 16.2 61.1 81 13 55.5
23:10 1022 30.18 851 25.13 15.9 60.6 84 13.3 55.9
23:15 1022 30.18 851 25.13 15.6 60.1 87 13.5 56.3
23:20 1022 30.18 851 25.13 15.5 59.9 87 13.3 55.9
23:25 1022 30.18 851 25.13 15.3 59.6 89 13.5 56.2
23:30 1022 30.18 851 25.13 15 59 91 13.5 56.4
23:35 1022 30.18 851 25.13 14.9 58.8 91 13.5 56.3
23:40 1022 30.18 851 25.13 14.7 58.4 93 13.6 56.4
23:45 1022 30.18 851 25.13 14.6 58.2 94 13.6 56.5
23:50 1022 30.18 851 25.13 14.5 58.1 95 13.6 56.6
23:55 1022 30.18 851 25.13 14.7 58.5 93 13.6 56.5
24:00 1022 30.18 851 25.13 14.8 58.6 93 13.6 56.5